Time;durP1;ratioP1;P1;durP2;ratioP2;P2;SDS_P1;SDS_P2;PMS_P1;PMS_P2;Temp;Humidity;BMP_temperature;BMP_pressure;BME280_temperature;BME280_humidity;BME280_pressure;Samples;Min_cycle;Max_cycle;Signal;HPM_P1;HPM_P2
2022/09/11 00:00:23;;;;;;;150.30;42.17;;;;;;;12.68;100.00;101461.13;1969522;28;20036;-64
2022/09/11 00:01:21;;;;;;;169.32;44.30;;;;;;;12.67;100.00;101456.81;1970100;28;20102;-63
2022/09/11 00:02:18;;;;;;;176.20;44.33;;;;;;;12.64;100.00;101457.78;1970247;28;20551;-64
2022/09/11 00:03:18;;;;;;;158.40;43.17;;;;;;;12.61;100.00;101457.91;1970087;28;20045;-64
2022/09/11 00:04:16;;;;;;;175.65;44.03;;;;;;;12.62;100.00;101457.84;1970265;28;20117;-63
2022/09/11 00:05:13;;;;;;;173.05;44.75;;;;;;;12.64;100.00;101459.56;1970141;28;20478;-63
2022/09/11 00:06:15;;;;;;;177.63;45.38;;;;;;;12.64;100.00;101464.78;1967881;28;20487;-64
2022/09/11 00:07:12;;;;;;;167.63;44.17;;;;;;;12.60;100.00;101462.28;1970280;28;20026;-64
2022/09/11 00:08:13;;;;;;;170.70;45.17;;;;;;;12.61;100.00;101456.16;1970103;28;20053;-63
2022/09/11 00:09:11;;;;;;;167.05;45.03;;;;;;;12.62;100.00;101459.63;1970261;28;20029;-64
2022/09/11 00:10:09;;;;;;;186.80;45.22;;;;;;;12.58;100.00;101458.91;1969970;28;20074;-63
2022/09/11 00:11:16;;;;;;;175.50;45.28;;;;;;;12.57;100.00;101462.44;1970131;28;20478;-63
2022/09/11 00:12:13;;;;;;;193.40;45.92;;;;;;;12.57;100.00;101462.44;1970114;28;20038;-63
2022/09/11 00:13:21;;;;;;;192.55;45.78;;;;;;;12.57;100.00;101462.44;1970149;28;20061;-63
2022/09/11 00:14:19;;;;;;;178.10;43.72;;;;;;;12.53;100.00;101460.88;1970110;28;20488;-63
2022/09/11 00:15:16;;;;;;;186.25;44.50;;;;;;;12.52;100.00;101453.91;1970217;28;20030;-63
2022/09/11 00:16:27;;;;;;;171.65;45.05;;;;;;;12.49;100.00;101456.66;1961701;28;20034;-64
2022/09/11 00:17:24;;;;;;;190.20;44.60;;;;;;;12.49;100.00;101454.06;1962949;28;20532;-63
2022/09/11 00:18:22;;;;;;;177.00;43.97;;;;;;;12.47;100.00;101463.72;1970166;28;20036;-63
2022/09/11 00:19:20;;;;;;;196.88;44.90;;;;;;;12.47;100.00;101464.59;1970154;28;20084;-63
2022/09/11 00:20:18;;;;;;;207.88;47.33;;;;;;;12.47;100.00;101455.88;1970077;28;20108;-63
2022/09/11 00:21:17;;;;;;;200.45;46.15;;;;;;;12.49;100.00;101464.53;1970135;28;20482;-63
2022/09/11 00:22:14;;;;;;;199.20;45.30;;;;;;;12.48;100.00;101462.81;1969911;28;20038;-64
2022/09/11 00:23:16;;;;;;;179.27;46.85;;;;;;;12.46;100.00;101460.25;1970119;28;20040;-63
2022/09/11 00:24:13;;;;;;;174.85;44.22;;;;;;;12.46;100.00;101457.63;1969985;28;20048;-63
2022/09/11 00:25:11;;;;;;;189.77;46.05;;;;;;;12.49;100.00;101452.28;1970069;28;20028;-63
2022/09/11 00:26:08;;;;;;;226.52;47.65;;;;;;;12.50;100.00;101458.38;1969971;28;20497;-63
2022/09/11 00:27:06;;;;;;;215.50;46.33;;;;;;;12.48;100.00;101458.44;1970085;28;20101;-63
2022/09/11 00:28:04;;;;;;;207.20;46.60;;;;;;;12.48;100.00;101460.19;1970051;28;20089;-63
2022/09/11 00:29:03;;;;;;;213.43;45.47;;;;;;;12.44;100.00;101466.47;1970033;28;20026;-64
2022/09/11 00:30:00;;;;;;;212.60;46.22;;;;;;;12.42;100.00;101460.44;1970199;28;20537;-63
2022/09/11 00:31:06;;;;;;;216.90;47.00;;;;;;;12.40;100.00;101464.88;1961563;28;20022;-63
2022/09/11 00:32:03;;;;;;;225.63;46.67;;;;;;;12.36;100.00;101465.00;1954339;28;20465;-64
2022/09/11 00:33:01;;;;;;;204.20;45.70;;;;;;;12.30;100.00;101467.88;1961739;28;20030;-64
2022/09/11 00:33:58;;;;;;;197.35;46.42;;;;;;;12.26;100.00;101466.28;1969144;28;20466;-63
2022/09/11 00:34:56;;;;;;;226.88;46.38;;;;;;;12.27;100.00;101468.00;1969934;28;20052;-63
2022/09/11 00:36:03;;;;;;;211.98;46.60;;;;;;;12.24;100.00;101470.72;1967718;28;20033;-64
2022/09/11 00:37:00;;;;;;;214.50;46.70;;;;;;;12.21;100.00;101473.44;1961547;28;20519;-64
2022/09/11 00:37:58;;;;;;;207.50;45.03;;;;;;;12.20;100.00;101474.38;1961792;28;20046;-63
2022/09/11 00:38:56;;;;;;;202.52;45.22;;;;;;;12.19;100.00;101472.69;1969091;28;20021;-64
2022/09/11 00:39:54;;;;;;;198.45;46.03;;;;;;;12.18;100.00;101468.38;1970021;28;20022;-63
2022/09/11 00:40:51;;;;;;;206.38;45.38;;;;;;;12.16;100.00;101470.16;1961557;28;20101;-63
2022/09/11 00:41:49;;;;;;;197.07;45.15;;;;;;;12.15;100.00;101465.84;1961726;28;20062;-64
2022/09/11 00:42:54;;;;;;;187.35;44.67;;;;;;;12.13;100.00;101467.66;1969053;28;20374;-64
2022/09/11 00:43:54;;;;;;;201.88;43.08;;;;;;;12.07;100.00;101464.38;1970020;28;20105;-64
2022/09/11 00:44:59;;;;;;;194.52;45.15;;;;;;;12.06;100.00;101467.06;1961700;28;20497;-63
2022/09/11 00:46:04;;;;;;;200.35;45.10;;;;;;;12.01;100.00;101464.59;1961728;28;20442;-63
2022/09/11 00:47:08;;;;;;;189.95;44.17;;;;;;;12.01;100.00;101475.03;1969871;28;20036;-63
2022/09/11 00:48:13;;;;;;;182.38;44.42;;;;;;;12.05;100.00;101471.41;1961611;28;20027;-63
2022/09/11 00:49:25;;;;;;;178.95;43.47;;;;;;;12.03;100.00;101472.38;1961736;28;20030;-63
2022/09/11 00:50:27;;;;;;;197.48;42.78;;;;;;;12.03;100.00;101475.84;1969947;28;20033;-63
2022/09/11 00:51:32;;;;;;;195.45;46.67;;;;;;;12.07;100.00;101474.00;1969871;28;20439;-64
2022/09/11 00:52:34;;;;;;;198.00;47.08;;;;;;;12.08;100.00;101475.72;1969953;28;20026;-64
2022/09/11 00:53:36;;;;;;;190.82;46.10;;;;;;;12.07;100.00;101474.00;1969845;28;20025;-64
2022/09/11 00:54:45;;;;;;;207.15;46.22;;;;;;;12.10;100.00;101474.75;1961474;28;20026;-64
2022/09/11 00:55:52;;;;;;;208.20;47.42;;;;;;;12.09;100.00;101477.41;1962200;28;20053;-64
2022/09/11 00:56:52;;;;;;;202.13;46.55;;;;;;;12.08;100.00;101480.94;1969940;28;20503;-64
2022/09/11 00:58:15;;;;;;;207.15;48.92;;;;;;;12.05;100.00;101481.88;1969797;28;20104;-64
2022/09/11 00:59:14;;;;;;;208.38;47.80;;;;;;;12.08;100.00;101481.78;1969781;28;20060;-63
2022/09/11 01:00:12;;;;;;;202.85;48.35;;;;;;;12.14;100.00;101480.69;1969806;28;20018;-64
2022/09/11 01:01:12;;;;;;;220.60;50.33;;;;;;;12.15;100.00;101474.53;1969834;28;20033;-64
2022/09/11 01:02:15;;;;;;;240.48;50.75;;;;;;;12.18;100.00;101481.44;1969763;28;20026;-64
2022/09/11 01:03:13;;;;;;;225.20;50.90;;;;;;;12.17;100.00;101479.72;1969739;28;20042;-64
2022/09/11 01:04:10;;;;;;;231.52;50.40;;;;;;;12.17;100.00;101474.50;1969645;28;20108;-63
2022/09/11 01:05:09;;;;;;;222.75;50.80;;;;;;;12.17;100.00;101477.09;1969203;28;20045;-64
2022/09/11 01:06:09;;;;;;;220.00;50.63;;;;;;;12.17;100.00;101480.59;1967433;28;20512;-64
2022/09/11 01:07:06;;;;;;;267.65;51.42;;;;;;;12.15;100.00;101476.31;1961561;28;20061;-64
2022/09/11 01:08:05;;;;;;;271.80;50.15;;;;;;;12.10;100.00;101479.97;1961482;28;20524;-64
2022/09/11 01:09:03;;;;;;;239.18;50.65;;;;;;;12.07;100.00;101479.22;1969083;28;20036;-64
2022/09/11 01:10:01;;;;;;;237.20;51.92;;;;;;;12.12;100.00;101485.16;1969934;28;20592;-64
2022/09/11 01:11:12;;;;;;;212.60;49.58;;;;;;;12.12;100.00;101484.28;1969669;28;20543;-64
2022/09/11 01:12:56;;;;;;;221.43;49.92;;;;;;;12.07;100.00;101493.16;1969729;28;20105;-64
2022/09/11 01:14:33;;;;;;;234.68;47.70;;;;;;;12.04;100.00;101490.63;1969806;28;20026;-63
2022/09/11 01:15:46;;;;;;;235.45;47.15;;;;;;;12.04;100.00;101490.63;1969800;28;20121;-64
2022/09/11 01:16:59;;;;;;;212.13;47.80;;;;;;;12.03;100.00;101483.69;1969718;28;20510;-64
2022/09/11 01:18:14;;;;;;;235.30;49.45;;;;;;;12.04;100.00;101485.41;1969773;28;20037;-64
2022/09/11 01:20:08;;;;;;;256.08;48.28;;;;;;;12.03;100.00;101488.94;1969676;28;20371;-64
2022/09/11 01:21:44;;;;;;;228.77;47.45;;;;;;;12.03;100.00;101478.47;1969741;28;20018;-64
2022/09/11 01:23:03;;;;;;;238.50;47.05;;;;;;;12.05;100.00;101487.09;1968928;28;20489;-65
2022/09/11 01:24:42;;;;;;;251.32;49.03;;;;;;;12.02;100.00;101483.75;1969438;28;20029;-63
2022/09/11 01:26:33;;;;;;;245.52;46.83;;;;;;;12.00;100.00;101489.03;1969607;28;20030;-65
2022/09/11 01:27:41;;;;;;;241.45;45.65;;;;;;;12.01;100.00;101477.66;1969623;28;20398;-64
2022/09/11 01:29:07;;;;;;;244.90;47.08;;;;;;;11.99;100.00;101479.50;1969816;28;20048;-64
2022/09/11 01:30:31;;;;;;;256.73;47.95;;;;;;;12.07;100.00;101489.69;1969758;28;20455;-64
2022/09/11 01:31:41;;;;;;;234.98;50.60;;;;;;;12.23;100.00;101484.72;1959226;28;20084;-65
2022/09/11 01:33:10;;;;;;;242.57;53.10;;;;;;;12.23;100.00;101484.72;1969724;28;20037;-64
2022/09/11 01:34:56;;;;;;;239.60;51.33;;;;;;;12.20;100.00;101490.06;1961443;28;20030;-65
2022/09/11 01:36:09;;;;;;;252.65;50.58;;;;;;;12.20;100.00;101487.47;1965084;28;20053;-64
2022/09/11 01:37:19;;;;;;;296.10;53.33;;;;;;;12.17;100.00;101479.72;1969751;28;20030;-64
2022/09/11 01:38:32;;;;;;;278.15;53.15;;;;;;;12.18;100.00;101482.28;1969675;28;20030;-64
2022/09/11 01:39:42;;;;;;;276.90;51.72;;;;;;;12.21;100.00;101486.53;1961228;28;20445;-64
2022/09/11 01:40:58;;;;;;;259.20;50.60;;;;;;;12.20;100.00;101487.47;1962268;28;20034;-65
2022/09/11 01:42:04;;;;;;;282.20;50.13;;;;;;;12.19;100.00;101491.00;1969549;28;20026;-64
2022/09/11 01:43:12;;;;;;;299.38;54.35;;;;;;;12.16;100.00;101483.25;1969656;28;20105;-64
2022/09/11 01:44:25;;;;;;;292.35;53.30;;;;;;;12.12;100.00;101492.13;1969645;28;20120;-65
2022/09/11 01:45:24;;;;;;;320.73;51.97;;;;;;;12.07;100.00;101487.94;1969602;28;20037;-65
2022/09/11 01:46:26;;;;;;;281.85;51.33;;;;;;;12.04;100.00;101490.63;1969577;28;20026;-65
2022/09/11 01:47:26;;;;;;;299.45;53.90;;;;;;;12.05;100.00;101487.09;1969611;28;20427;-65
2022/09/11 01:48:37;;;;;;;289.92;52.38;;;;;;;12.04;100.00;101490.63;1969578;28;20032;-65
2022/09/11 01:49:43;;;;;;;305.98;53.15;;;;;;;12.01;100.00;101490.75;1969623;28;20082;-65
2022/09/11 01:50:46;;;;;;;301.65;52.10;;;;;;;11.98;100.00;101496.13;1969615;28;20475;-65
2022/09/11 01:51:51;;;;;;;283.63;51.83;;;;;;;11.95;100.00;101493.59;1969401;28;20037;-65
2022/09/11 01:52:59;;;;;;;262.15;52.28;;;;;;;11.90;100.00;101499.00;1969637;28;20026;-65
2022/09/11 01:54:01;;;;;;;259.60;51.28;;;;;;;11.89;100.00;101491.22;1969508;28;20029;-66
2022/09/11 01:55:09;;;;;;;286.15;51.55;;;;;;;11.87;100.00;101499.13;1969602;28;20033;-65
2022/09/11 01:56:20;;;;;;;251.95;52.17;;;;;;;11.85;100.00;101501.78;1969483;28;20030;-65
2022/09/11 01:57:29;;;;;;;268.17;51.63;;;;;;;11.87;100.00;101500.91;1969609;28;20025;-65
2022/09/11 01:58:35;;;;;;;270.73;51.65;;;;;;;11.91;100.00;101499.88;1969549;28;20022;-64
2022/09/11 01:59:53;;;;;;;306.33;53.25;;;;;;;11.89;100.00;101502.53;1969543;28;20433;-65
2022/09/11 02:01:01;;;;;;;285.17;53.60;;;;;;;11.85;100.00;101496.56;1969473;28;20049;-64
2022/09/11 02:02:06;;;;;;;265.08;52.75;;;;;;;11.82;100.00;101501.91;1969450;28;20041;-64
2022/09/11 02:03:15;;;;;;;290.85;52.72;;;;;;;11.80;100.00;101505.50;1960988;28;20034;-65
2022/09/11 02:04:21;;;;;;;257.85;51.95;;;;;;;11.80;100.00;101503.72;1962132;28;20613;-65
2022/09/11 02:05:32;;;;;;;271.83;52.33;;;;;;;11.81;100.00;101500.19;1969469;28;20077;-64
2022/09/11 02:06:38;;;;;;;272.42;51.58;;;;;;;11.79;100.00;101496.78;1969499;28;20025;-65
2022/09/11 02:07:43;;;;;;;311.25;54.13;;;;;;;11.78;100.00;101497.72;1969543;28;20525;-65
2022/09/11 02:08:49;;;;;;;310.13;54.53;;;;;;;11.85;100.00;101500.94;1969501;28;20080;-65
2022/09/11 02:09:58;;;;;;;289.10;53.17;;;;;;;11.82;100.00;101496.69;1969572;28;20025;-65
2022/09/11 02:11:05;;;;;;;288.80;51.65;;;;;;;11.80;100.00;101503.72;1969443;28;20517;-65
2022/09/11 02:12:10;;;;;;;294.70;53.38;;;;;;;11.74;100.00;101506.59;1969495;28;20555;-65
2022/09/11 02:13:32;;;;;;;308.70;52.97;;;;;;;11.71;100.00;101498.84;1969475;28;20105;-65
2022/09/11 02:14:40;;;;;;;327.05;54.03;;;;;;;11.74;100.00;101501.34;1969575;28;20038;-65
2022/09/11 02:15:46;;;;;;;317.40;53.05;;;;;;;11.69;100.00;101505.88;1969525;28;20022;-65
2022/09/11 02:16:49;;;;;;;297.92;54.72;;;;;;;11.68;100.00;101506.78;1962548;28;20041;-65
2022/09/11 02:18:00;;;;;;;310.48;54.65;;;;;;;11.67;100.00;101505.09;1962777;28;20157;-65
2022/09/11 02:19:05;;;;;;;350.42;55.38;;;;;;;11.64;100.00;101505.19;1970999;28;20389;-65
2022/09/11 02:20:04;;;;;;;320.15;55.42;;;;;;;11.65;100.00;101509.50;1971043;28;20029;-65
2022/09/11 02:21:02;;;;;;;346.23;55.03;;;;;;;11.66;100.00;101508.59;1970872;28;20036;-65
2022/09/11 02:21:59;;;;;;;318.50;56.78;;;;;;;11.66;100.00;101511.22;1971013;28;20038;-65
2022/09/11 02:22:57;;;;;;;321.90;55.70;;;;;;;11.65;100.00;101509.50;1971050;28;20389;-65
2022/09/11 02:23:56;;;;;;;325.92;57.28;;;;;;;11.66;100.00;101506.84;1970915;28;20021;-66
2022/09/11 02:24:54;;;;;;;351.83;58.22;;;;;;;11.65;100.00;101504.28;1970962;28;20038;-65
2022/09/11 02:25:51;;;;;;;375.38;58.90;;;;;;;11.66;100.00;101508.59;1962459;28;20450;-65
2022/09/11 02:26:57;;;;;;;348.00;56.80;;;;;;;11.62;100.00;101505.25;1962781;28;20073;-65
2022/09/11 02:27:54;;;;;;;335.10;55.95;;;;;;;11.59;100.00;101505.34;1970939;28;20033;-66
2022/09/11 02:28:53;;;;;;;376.17;59.85;;;;;;;11.62;100.00;101509.63;1970971;28;20021;-66
2022/09/11 02:29:52;;;;;;;364.20;58.60;;;;;;;11.62;100.00;101509.63;1970968;28;20028;-66
2022/09/11 02:30:50;;;;;;;366.15;57.08;;;;;;;11.61;100.00;101518.38;1971052;28;20109;-65
2022/09/11 02:31:48;;;;;;;312.75;58.22;;;;;;;11.63;100.00;101513.97;1970920;28;20033;-65
2022/09/11 02:32:46;;;;;;;342.88;57.40;;;;;;;11.74;100.00;101514.44;1970982;28;20044;-65
2022/09/11 02:33:43;;;;;;;310.15;58.78;;;;;;;11.74;100.00;101514.44;1970898;28;20393;-64
2022/09/11 02:34:44;;;;;;;325.38;59.80;;;;;;;11.72;100.00;101506.63;1970897;28;20124;-65
2022/09/11 02:35:51;;;;;;;303.58;59.03;;;;;;;11.73;100.00;101515.31;1968525;28;20034;-65
2022/09/11 02:37:37;;;;;;;332.48;58.20;;;;;;;11.69;100.00;101511.97;1970890;28;20488;-65
2022/09/11 02:38:51;;;;;;;298.52;54.88;;;;;;;11.70;100.00;101512.81;1970862;28;20109;-65
2022/09/11 02:40:25;;;;;;;291.33;55.08;;;;;;;11.69;100.00;101511.97;1970903;28;20109;-65
2022/09/11 02:41:39;;;;;;;337.30;56.50;;;;;;;11.70;100.00;101512.81;1971041;28;20385;-66
2022/09/11 02:43:00;;;;;;;320.45;56.58;;;;;;;11.66;100.00;101513.81;1970840;28;20025;-66
2022/09/11 02:44:29;;;;;;;342.98;55.22;;;;;;;11.62;100.00;101520.06;1970847;28;20053;-65
2022/09/11 02:46:03;;;;;;;332.25;55.67;;;;;;;11.59;100.00;101521.91;1970759;28;20037;-65
2022/09/11 02:47:32;;;;;;;329.60;54.97;;;;;;;11.58;100.00;101514.97;1970819;28;20048;-66
2022/09/11 02:48:54;;;;;;;330.30;54.42;;;;;;;11.54;100.00;101510.78;1970798;28;20394;-65
2022/09/11 02:50:17;;;;;;;337.77;54.30;;;;;;;11.52;100.00;101514.31;1962552;28;20045;-66
2022/09/11 02:51:45;;;;;;;313.95;53.83;;;;;;;11.48;100.00;101512.72;1965295;28;20618;-66
2022/09/11 02:53:02;;;;;;;310.25;53.00;;;;;;;11.47;100.00;101517.13;1970751;28;20500;-66
2022/09/11 02:54:27;;;;;;;314.77;53.03;;;;;;;11.46;100.00;101520.63;1970828;28;20026;-66
2022/09/11 02:55:37;;;;;;;341.08;54.45;;;;;;;11.44;100.00;101522.44;1970987;28;20381;-66
2022/09/11 02:56:55;;;;;;;353.98;55.72;;;;;;;11.39;100.00;101520.00;1970724;28;20207;-66
2022/09/11 02:58:25;;;;;;;344.48;54.17;;;;;;;11.37;100.00;101523.56;1970826;28;20022;-66
2022/09/11 02:59:37;;;;;;;390.67;53.10;;;;;;;11.29;100.00;101527.31;1970708;28;20052;-66
2022/09/11 03:00:35;;;;;;;304.10;50.38;;;;;;;11.29;100.00;101521.25;1970716;28;20022;-67
2022/09/11 03:02:09;;;;;;;360.60;53.88;;;;;;;11.25;100.00;101522.25;1970619;28;20037;-66
2022/09/11 03:03:06;;;;;;;380.35;51.45;;;;;;;11.23;100.00;101524.91;1943040;29;20055;-66
2022/09/11 03:04:04;;;;;;;364.42;52.90;;;;;;;11.24;100.00;101515.28;1963329;28;20524;-66
2022/09/11 03:05:01;;;;;;;347.55;53.75;;;;;;;11.22;100.00;101525.81;1970669;28;20025;-66
2022/09/11 03:05:59;;;;;;;356.70;56.40;;;;;;;11.21;100.00;101526.72;1968192;28;20030;-66
2022/09/11 03:06:58;;;;;;;353.92;55.08;;;;;;;11.23;100.00;101526.66;1970599;28;20494;-67
2022/09/11 03:07:55;;;;;;;344.83;56.47;;;;;;;11.21;100.00;101526.72;1970722;28;20018;-66
2022/09/11 03:08:53;;;;;;;363.45;57.42;;;;;;;11.21;100.00;101529.31;1970684;28;20033;-67
2022/09/11 03:09:51;;;;;;;343.38;57.70;;;;;;;11.20;100.00;101525.00;1970688;28;20047;-66
2022/09/11 03:10:49;;;;;;;337.20;56.00;;;;;;;11.19;100.00;101528.53;1970630;28;20037;-66
2022/09/11 03:11:46;;;;;;;295.20;55.38;;;;;;;11.20;100.00;101530.25;1970509;28;20549;-66
2022/09/11 03:12:43;;;;;;;302.92;53.88;;;;;;;11.18;100.00;101532.03;1970672;28;20037;-66
2022/09/11 03:13:41;;;;;;;311.08;54.10;;;;;;;11.17;100.00;101535.56;1962288;28;20520;-67
2022/09/11 03:14:38;;;;;;;345.58;56.90;;;;;;;11.16;100.00;101534.69;1962395;28;20026;-66
2022/09/11 03:15:35;;;;;;;308.75;53.63;;;;;;;11.15;100.00;101534.78;1969658;28;20036;-66
2022/09/11 03:16:34;;;;;;;325.88;54.90;;;;;;;11.12;100.00;101532.25;1970686;28;20160;-67
2022/09/11 03:17:32;;;;;;;306.75;53.97;;;;;;;11.13;100.00;101532.22;1970550;28;20053;-67
2022/09/11 03:18:30;;;;;;;312.30;54.00;;;;;;;11.12;100.00;101530.47;1970585;28;20397;-67
2022/09/11 03:19:27;;;;;;;381.40;57.13;;;;;;;11.11;100.00;101535.75;1970491;28;20100;-67
2022/09/11 03:20:25;;;;;;;327.13;55.00;;;;;;;11.08;100.00;101532.34;1970644;28;20030;-66
2022/09/11 03:21:22;;;;;;;342.70;55.83;;;;;;;11.11;100.00;101530.53;1962244;28;20069;-66
2022/09/11 03:22:19;;;;;;;331.40;56.50;;;;;;;11.12;100.00;101532.25;1962284;28;20068;-66
2022/09/11 03:23:17;;;;;;;373.73;58.47;;;;;;;11.13;100.00;101528.72;1969721;28;20043;-67
2022/09/11 03:24:15;;;;;;;298.92;54.28;;;;;;;11.12;100.00;101527.88;1970421;28;20033;-66
2022/09/11 03:25:14;;;;;;;358.65;57.22;;;;;;;11.16;100.00;101531.25;1970570;28;20053;-66
2022/09/11 03:26:11;;;;;;;501.25;63.90;;;;;;;11.16;100.00;101533.88;1970398;28;20482;-66
2022/09/11 03:27:08;;;;;;;500.98;63.45;;;;;;;11.17;100.00;101530.34;1970709;28;20108;-66
2022/09/11 03:28:06;;;;;;;371.50;57.20;;;;;;;11.17;100.00;101530.34;1969636;28;20021;-67
2022/09/11 03:29:04;;;;;;;444.67;61.95;;;;;;;11.18;100.00;101534.66;1970520;28;20544;-68
2022/09/11 03:30:01;;;;;;;505.10;63.80;;;;;;;11.19;100.00;101528.53;1970378;28;20087;-67
2022/09/11 03:30:59;;;;;;;600.28;67.45;;;;;;;11.21;100.00;101526.72;1970508;28;20049;-67
2022/09/11 03:31:57;;;;;;;765.22;73.63;;;;;;;11.21;100.00;101526.72;1970391;28;20072;-67
2022/09/11 03:32:55;;;;;;;673.03;68.57;;;;;;;11.23;100.00;101524.06;1970449;28;20041;-67
2022/09/11 03:33:52;;;;;;;695.92;69.47;;;;;;;11.24;100.00;101528.34;1970478;28;20029;-68
2022/09/11 03:34:50;;;;;;;741.50;72.78;;;;;;;11.26;100.00;101534.41;1970406;28;20060;-67
2022/09/11 03:35:47;;;;;;;741.70;71.72;;;;;;;11.25;100.00;101533.53;1968269;28;20119;-67
2022/09/11 03:36:46;;;;;;;767.08;74.88;;;;;;;11.25;100.00;101530.94;1970264;28;20502;-68
2022/09/11 03:37:46;;;;;;;822.85;75.55;;;;;;;11.26;100.00;101537.00;1970495;28;20030;-67
2022/09/11 03:38:44;;;;;;;784.88;70.70;;;;;;;11.25;100.00;101536.16;1970537;28;20041;-67
2022/09/11 03:39:42;;;;;;;805.40;73.28;;;;;;;11.27;100.00;101536.97;1970493;28;20410;-67
2022/09/11 03:40:43;;;;;;;672.35;67.15;;;;;;;11.29;100.00;101535.13;1970364;28;20032;-67
2022/09/11 03:41:40;;;;;;;817.35;72.28;;;;;;;11.30;100.00;101541.22;1970532;28;20398;-67
2022/09/11 03:42:38;;;;;;;764.30;72.40;;;;;;;11.30;100.00;101536.84;1970385;28;20034;-67
2022/09/11 03:43:36;;;;;;;820.80;73.70;;;;;;;11.31;100.00;101538.56;1970452;28;20054;-67
2022/09/11 03:44:33;;;;;;;679.80;67.78;;;;;;;11.32;100.00;101535.03;1962032;28;20597;-67
2022/09/11 03:45:31;;;;;;;788.83;71.15;;;;;;;11.33;100.00;101535.91;1962111;28;20042;-67
2022/09/11 03:46:28;;;;;;;784.92;73.75;;;;;;;11.33;100.00;101536.75;1969466;28;20392;-67
2022/09/11 03:47:25;;;;;;;765.38;73.95;;;;;;;11.35;100.00;101538.47;1961985;28;20061;-67
2022/09/11 03:48:24;;;;;;;749.70;72.82;;;;;;;11.37;100.00;101541.88;1962079;28;20032;-68
2022/09/11 03:49:21;;;;;;;690.30;68.25;;;;;;;11.37;100.00;101536.63;1969528;28;20399;-67
2022/09/11 03:50:18;;;;;;;773.45;71.90;;;;;;;11.38;100.00;101541.81;1970319;28;20060;-67
2022/09/11 03:51:16;;;;;;;768.00;72.70;;;;;;;11.38;100.00;101539.19;1970284;28;20121;-67
2022/09/11 03:52:13;;;;;;;732.60;70.78;;;;;;;11.39;100.00;101537.44;1970351;28;20030;-67
2022/09/11 03:53:11;;;;;;;622.78;65.82;;;;;;;11.40;100.00;101537.38;1970257;28;20386;-67
2022/09/11 03:54:09;;;;;;;853.67;76.57;;;;;;;11.42;100.00;101539.94;1970367;28;20053;-67
2022/09/11 03:55:07;;;;;;;733.42;71.18;;;;;;;11.42;100.00;101540.78;1970220;28;20100;-67
2022/09/11 03:56:05;;;;;;;963.90;80.35;;;;;;;11.41;100.00;101544.31;1970348;28;20021;-67
2022/09/11 03:57:02;;;;;;;867.40;74.32;;;;;;;11.40;100.00;101539.16;1970393;28;20017;-66
2022/09/11 03:58:00;;;;;;;809.03;73.60;;;;;;;11.37;100.00;101534.88;1970363;28;20034;-68
2022/09/11 03:59:01;;;;;;;888.58;76.22;;;;;;;11.36;100.00;101538.38;1970311;28;20022;-66
2022/09/11 04:00:00;;;;;;;911.00;78.63;;;;;;;11.37;100.00;101539.25;1970203;28;20030;-67
2022/09/11 04:00:58;;;;;;;838.50;73.28;;;;;;;11.35;100.00;101543.69;1970113;28;20041;-67
2022/09/11 04:01:56;;;;;;;786.17;73.70;;;;;;;11.38;100.00;101544.44;1961809;28;20025;-66
2022/09/11 04:02:57;;;;;;;713.88;68.07;;;;;;;11.40;100.00;101541.75;1961900;28;20030;-66
2022/09/11 04:03:54;;;;;;;662.03;66.93;;;;;;;11.42;100.00;101539.94;1969779;28;20461;-67
2022/09/11 04:04:51;;;;;;;746.55;70.25;;;;;;;11.41;100.00;101543.47;1961933;28;20030;-66
2022/09/11 04:05:59;;;;;;;671.28;66.90;;;;;;;11.40;100.00;101541.75;1959563;28;20571;-66
2022/09/11 04:06:58;;;;;;;692.58;67.25;;;;;;;11.40;100.00;101542.59;1970228;28;20088;-66
2022/09/11 04:07:55;;;;;;;607.92;63.05;;;;;;;11.39;100.00;101534.84;1970155;28;20061;-66
2022/09/11 04:08:53;;;;;;;563.88;61.35;;;;;;;11.42;100.00;101538.19;1961905;28;20393;-66
2022/09/11 04:09:50;;;;;;;554.00;61.22;;;;;;;11.42;100.00;101539.94;1961915;28;20494;-66
2022/09/11 04:10:48;;;;;;;555.15;62.42;;;;;;;11.43;100.00;101544.28;1969335;28;20030;-66
2022/09/11 04:11:45;;;;;;;539.67;62.40;;;;;;;11.43;100.00;101536.44;1970137;28;20026;-66
2022/09/11 04:12:43;;;;;;;585.25;63.83;;;;;;;11.42;100.00;101537.31;1970170;28;20037;-66
2022/09/11 04:13:42;;;;;;;496.83;58.58;;;;;;;11.40;100.00;101539.16;1970158;28;20029;-68
2022/09/11 04:14:39;;;;;;;535.38;60.72;;;;;;;11.33;100.00;101541.97;1970238;28;20026;-67
2022/09/11 04:15:37;;;;;;;515.22;60.83;;;;;;;11.39;100.00;101540.06;1970177;28;20072;-67
2022/09/11 04:16:35;;;;;;;599.15;63.83;;;;;;;11.38;100.00;101533.97;1970165;28;20403;-67
2022/09/11 04:17:33;;;;;;;622.45;64.20;;;;;;;11.40;100.00;101534.75;1970229;28;20041;-66
2022/09/11 04:18:35;;;;;;;553.88;61.42;;;;;;;11.40;100.00;101536.53;1970051;28;20030;-67
2022/09/11 04:19:33;;;;;;;522.55;59.33;;;;;;;11.39;100.00;101532.22;1970163;28;20034;-66
2022/09/11 04:20:30;;;;;;;488.60;58.63;;;;;;;11.38;100.00;101530.50;1970049;28;20061;-66
2022/09/11 04:21:30;;;;;;;503.23;59.22;;;;;;;11.38;100.00;101535.72;1970221;28;20478;-66
2022/09/11 04:22:27;;;;;;;673.28;64.97;;;;;;;11.37;100.00;101536.63;1969427;28;20505;-66
2022/09/11 04:23:24;;;;;;;630.25;66.13;;;;;;;11.31;100.00;101533.34;1969687;28;20076;-66
2022/09/11 04:24:22;;;;;;;549.80;61.83;;;;;;;11.32;100.00;101535.03;1969985;28;20041;-67
2022/09/11 04:25:20;;;;;;;538.72;61.28;;;;;;;11.33;100.00;101541.13;1970116;28;20026;-67
2022/09/11 04:26:20;;;;;;;610.67;63.08;;;;;;;11.35;100.00;101543.69;1969988;28;20036;-66
2022/09/11 04:27:18;;;;;;;577.30;63.20;;;;;;;11.34;100.00;101537.59;1970132;28;20033;-66
2022/09/11 04:28:15;;;;;;;538.55;60.90;;;;;;;11.30;100.00;101539.44;1970015;28;20026;-66
2022/09/11 04:29:12;;;;;;;549.97;60.60;;;;;;;11.30;100.00;101533.38;1961791;28;20105;-66
2022/09/11 04:30:10;;;;;;;577.45;62.88;;;;;;;11.31;100.00;101541.19;1961808;28;20026;-66
2022/09/11 04:31:08;;;;;;;596.38;63.65;;;;;;;11.29;100.00;101534.31;1969190;28;20052;-67
2022/09/11 04:32:06;;;;;;;636.17;64.45;;;;;;;11.30;100.00;101542.06;1969322;28;20034;-66
2022/09/11 04:33:05;;;;;;;597.72;63.17;;;;;;;11.30;100.00;101536.84;1969406;28;20026;-66
2022/09/11 04:34:03;;;;;;;674.97;65.15;;;;;;;11.31;100.00;101532.47;1961722;28;20033;-67
2022/09/11 04:35:00;;;;;;;634.50;63.60;;;;;;;11.30;100.00;101541.22;1961656;28;20088;-67
2022/09/11 04:36:06;;;;;;;638.30;64.40;;;;;;;11.30;100.00;101534.22;1966983;28;20013;-67
2022/09/11 04:37:03;;;;;;;668.20;65.30;;;;;;;11.30;100.00;101536.84;1969855;28;20109;-67
2022/09/11 04:38:01;;;;;;;721.45;67.72;;;;;;;11.30;100.00;101536.84;1970022;28;20026;-67
2022/09/11 04:38:59;;;;;;;645.25;65.40;;;;;;;11.28;100.00;101538.66;1969933;28;20092;-67
2022/09/11 04:39:56;;;;;;;705.50;66.88;;;;;;;11.29;100.00;101535.13;1969897;28;20514;-68
2022/09/11 04:40:54;;;;;;;539.10;58.30;;;;;;;11.28;100.00;101541.28;1969880;28;20026;-68
2022/09/11 04:41:51;;;;;;;578.83;60.00;;;;;;;11.29;100.00;101545.59;1970027;28;20022;-67
2022/09/11 04:42:48;;;;;;;647.60;64.65;;;;;;;11.28;100.00;101538.66;1969967;28;20037;-68
2022/09/11 04:43:46;;;;;;;641.45;64.72;;;;;;;11.26;100.00;101540.47;1961657;28;20050;-67